Time;durP1;ratioP1;P1;durP2;ratioP2;P2;SDS_P1;SDS_P2;PMS_P1;PMS_P2;Temp;Humidity;BMP_temperature;BMP_pressure;BME280_temperature;BME280_humidity;BME280_pressure;Samples;Min_cycle;Max_cycle;Signal;HPM_P1;HPM_P2
2021/09/15 00:01:56;;;;;;;19.85;13.25;;;;;;;16.88;100.00;98232.56;5027985;28;20018;-65
2021/09/15 00:04:22;;;;;;;19.10;11.23;;;;;;;16.93;99.99;98232.31;5027905;28;20049;-65
2021/09/15 00:06:47;;;;;;;19.40;11.98;;;;;;;16.82;99.71;98227.53;5027698;28;20088;-65
2021/09/15 00:09:13;;;;;;;17.35;11.95;;;;;;;16.81;99.73;98228.47;5027869;28;20025;-65
2021/09/15 00:11:38;;;;;;;23.05;14.45;;;;;;;16.87;100.00;98220.16;5027811;28;20013;-65
2021/09/15 00:14:04;;;;;;;28.27;15.98;;;;;;;16.93;100.00;98227.00;5027505;28;20371;-65
2021/09/15 00:16:30;;;;;;;23.73;15.32;;;;;;;16.97;100.00;98220.59;5027662;28;20021;-65
2021/09/15 00:18:56;;;;;;;22.58;15.52;;;;;;;17.02;100.00;98222.06;5027737;28;20025;-65
2021/09/15 00:21:21;;;;;;;19.17;14.75;;;;;;;17.07;100.00;98212.06;5027669;28;20021;-65
2021/09/15 00:23:47;;;;;;;24.75;14.30;;;;;;;17.07;100.00;98217.38;5027615;28;20025;-65
2021/09/15 00:26:12;;;;;;;25.52;15.40;;;;;;;17.09;100.00;98220.78;5027584;28;20051;-65
2021/09/15 00:28:38;;;;;;;24.25;14.52;;;;;;;17.11;100.00;98220.72;5010071;28;20026;-65
2021/09/15 00:31:03;;;;;;;19.75;14.38;;;;;;;17.12;100.00;98219.81;5009969;28;20026;-65
2021/09/15 00:33:28;;;;;;;22.00;13.82;;;;;;;17.16;100.00;98214.25;5027410;28;20313;-65
2021/09/15 00:35:54;;;;;;;18.80;12.55;;;;;;;17.23;100.00;98212.97;5027425;28;20088;-65
2021/09/15 00:38:19;;;;;;;28.55;14.13;;;;;;;17.28;100.00;98212.75;5027344;28;20018;-65
2021/09/15 00:40:45;;;;;;;20.60;15.00;;;;;;;17.30;100.00;98202.03;5027289;28;20384;-65
2021/09/15 00:43:10;;;;;;;24.73;13.68;;;;;;;17.29;100.00;98206.47;5027301;28;20092;-65
2021/09/15 00:45:36;;;;;;;15.82;10.77;;;;;;;17.25;100.00;98211.06;5027199;28;20021;-65
2021/09/15 00:48:01;;;;;;;16.65;11.20;;;;;;;17.25;99.76;98208.41;5027096;28;20018;-65
2021/09/15 00:50:27;;;;;;;18.60;11.32;;;;;;;17.30;99.89;98202.84;5027138;28;20025;-65
2021/09/15 00:52:52;;;;;;;14.93;9.93;;;;;;;17.31;99.69;98201.94;5027037;28;20028;-65
2021/09/15 00:55:18;;;;;;;16.95;10.13;;;;;;;17.36;99.40;98191.03;5026987;28;20089;-65
2021/09/15 00:57:43;;;;;;;17.15;9.38;;;;;;;17.32;99.48;98189.47;5026993;28;20018;-65
2021/09/15 01:00:09;;;;;;;19.38;9.85;;;;;;;17.31;98.92;98195.75;5026930;28;20032;-65
2021/09/15 01:02:35;;;;;;;18.50;10.23;;;;;;;17.28;99.11;98188.81;5026939;28;20057;-65
2021/09/15 01:05:00;;;;;;;17.85;9.52;;;;;;;17.20;98.47;98189.19;5026853;28;20029;-65
2021/09/15 01:07:26;;;;;;;13.48;8.38;;;;;;;17.21;98.68;98193.56;5026205;28;20105;-65
2021/09/15 01:09:52;;;;;;;12.85;8.90;;;;;;;17.16;98.85;98187.66;5027002;28;20028;-65
2021/09/15 01:12:18;;;;;;;21.73;9.35;;;;;;;17.09;98.16;98188.03;5026690;28;20028;-65
2021/09/15 01:14:44;;;;;;;19.25;10.48;;;;;;;17.12;99.95;98183.41;5026613;28;20017;-65
2021/09/15 01:17:09;;;;;;;13.15;9.00;;;;;;;17.15;100.00;98183.25;5026581;28;20209;-65
2021/09/15 01:19:35;;;;;;;13.82;9.10;;;;;;;17.06;99.17;98183.72;5026517;28;20021;-65
2021/09/15 01:22:01;;;;;;;15.85;10.35;;;;;;;17.15;100.00;98185.06;5026537;28;20029;-65
2021/09/15 01:24:29;;;;;;;17.33;8.65;;;;;;;17.18;99.65;98183.09;5026464;28;20021;-65
2021/09/15 01:26:56;;;;;;;11.82;8.80;;;;;;;17.28;99.63;98179.00;5026323;28;20032;-65
2021/09/15 01:29:27;;;;;;;13.45;9.10;;;;;;;17.38;99.89;98178.50;5026385;28;20025;-65
2021/09/15 01:31:56;;;;;;;12.60;9.07;;;;;;;17.46;99.71;98177.19;5026397;28;20032;-65
2021/09/15 01:34:22;;;;;;;15.70;8.30;;;;;;;17.82;100.00;98182.31;5026308;28;20026;-65
2021/09/15 01:36:48;;;;;;;15.77;8.18;;;;;;;18.00;99.40;98183.97;5026218;28;20021;-65
2021/09/15 01:39:13;;;;;;;14.82;8.32;;;;;;;18.16;98.89;98168.84;5026171;28;20022;-65
2021/09/15 01:41:39;;;;;;;14.25;7.82;;;;;;;18.34;98.42;98178.41;5026170;28;20033;-65
2021/09/15 01:44:04;;;;;;;16.77;7.55;;;;;;;18.38;98.42;98167.53;5026095;28;20029;-65
2021/09/15 01:46:30;;;;;;;15.75;8.40;;;;;;;18.56;97.73;98162.94;5026043;28;20029;-65
2021/09/15 01:48:55;;;;;;;12.65;7.45;;;;;;;18.72;97.47;98163.75;5025993;28;20096;-65
2021/09/15 01:51:20;;;;;;;12.63;7.25;;;;;;;18.83;97.33;98166.66;5025939;28;20022;-65
2021/09/15 01:53:46;;;;;;;13.48;7.53;;;;;;;18.94;97.01;98164.19;5008470;28;20049;-65
2021/09/15 01:56:11;;;;;;;13.40;7.20;;;;;;;18.97;96.64;98164.00;5008295;28;20325;-65
2021/09/15 01:58:37;;;;;;;12.35;6.78;;;;;;;19.03;96.47;98158.31;5025849;28;20077;-65
2021/09/15 02:01:02;;;;;;;12.20;7.28;;;;;;;19.04;96.23;98162.69;5025768;28;20025;-65
2021/09/15 02:03:27;;;;;;;15.18;6.85;;;;;;;19.14;96.31;98162.03;5025683;28;20025;-65
2021/09/15 02:05:53;;;;;;;19.25;8.25;;;;;;;19.20;95.72;98158.13;5025567;28;20093;-65
2021/09/15 02:08:18;;;;;;;11.73;6.57;;;;;;;19.22;95.77;98159.78;5025816;28;20034;-65
2021/09/15 02:10:44;;;;;;;14.13;6.80;;;;;;;19.21;95.64;98162.53;5025603;28;20053;-65
2021/09/15 02:13:09;;;;;;;11.50;5.93;;;;;;;19.20;96.05;98169.66;5025526;28;20095;-65
2021/09/15 02:15:35;;;;;;;11.70;6.53;;;;;;;19.25;95.73;98172.06;5025547;28;20033;-65
2021/09/15 02:18:01;;;;;;;11.55;6.78;;;;;;;19.25;95.84;98167.59;5007475;28;20340;-65
2021/09/15 02:20:26;;;;;;;11.05;6.60;;;;;;;19.23;95.90;98163.28;5025522;28;20033;-65
2021/09/15 02:22:51;;;;;;;11.63;6.68;;;;;;;19.20;96.02;98147.44;5007923;28;20101;-65
2021/09/15 02:25:17;;;;;;;13.35;6.75;;;;;;;19.17;96.19;98152.97;5007848;28;20198;-65
2021/09/15 02:27:42;;;;;;;15.80;6.50;;;;;;;19.13;96.34;98148.78;5025221;28;20040;-65
2021/09/15 02:30:08;;;;;;;14.05;6.78;;;;;;;19.10;96.33;98151.63;5025471;28;20026;-65
2021/09/15 02:32:34;;;;;;;12.57;6.75;;;;;;;19.08;96.60;98150.91;5025205;28;20073;-65
2021/09/15 02:34:59;;;;;;;13.68;6.82;;;;;;;19.06;96.94;98147.44;5025164;28;20021;-65
2021/09/15 02:37:24;;;;;;;12.93;6.50;;;;;;;19.05;96.95;98145.75;5025087;28;20022;-65
2021/09/15 02:39:50;;;;;;;15.27;7.05;;;;;;;19.01;97.32;98150.41;5025064;28;20371;-65
2021/09/15 02:42:15;;;;;;;13.90;6.40;;;;;;;19.00;97.51;98142.47;5025315;28;20036;-65
2021/09/15 02:44:41;;;;;;;13.43;6.80;;;;;;;18.97;97.81;98146.22;5025147;28;20044;-65
2021/09/15 02:47:06;;;;;;;15.52;6.75;;;;;;;18.92;97.72;98136.78;5025023;28;20068;-65
2021/09/15 02:49:32;;;;;;;10.63;6.35;;;;;;;18.89;97.64;98139.63;5024986;28;20022;-65
2021/09/15 02:51:57;;;;;;;12.63;6.40;;;;;;;18.84;98.23;98147.03;5024956;28;20101;-65
2021/09/15 02:54:23;;;;;;;10.13;6.68;;;;;;;18.76;98.09;98149.28;5024934;28;20096;-65
2021/09/15 02:56:48;;;;;;;16.02;6.88;;;;;;;18.63;97.84;98150.97;5024843;28;20029;-65
2021/09/15 02:59:14;;;;;;;12.75;7.15;;;;;;;18.63;98.25;98153.63;5024798;28;20018;-65
2021/09/15 03:01:39;;;;;;;11.35;6.68;;;;;;;18.65;98.06;98154.41;5024858;28;20036;-65
2021/09/15 03:04:04;;;;;;;9.68;6.70;;;;;;;18.53;97.62;98157.78;5024691;28;20045;-65
2021/09/15 03:06:30;;;;;;;11.25;7.05;;;;;;;18.45;97.82;98154.72;5024494;28;20091;-65
2021/09/15 03:08:56;;;;;;;10.73;7.60;;;;;;;18.39;98.24;98152.41;5006390;28;20041;-65
2021/09/15 03:11:21;;;;;;;11.68;7.35;;;;;;;18.34;98.56;98157.09;5023846;28;20026;-65
2021/09/15 03:13:47;;;;;;;15.93;7.90;;;;;;;18.30;99.01;98163.56;5023851;28;20029;-65
2021/09/15 03:16:16;;;;;;;10.73;7.55;;;;;;;18.25;99.39;98157.63;5023804;28;20026;-65
2021/09/15 03:18:41;;;;;;;11.10;7.65;;;;;;;18.23;99.23;98157.72;5023468;28;20025;-65
2021/09/15 03:21:07;;;;;;;17.20;8.32;;;;;;;18.18;99.65;98157.13;5023724;28;20274;-65
2021/09/15 03:23:33;;;;;;;11.60;7.65;;;;;;;18.14;100.00;98155.59;5023632;28;20034;-65
2021/09/15 03:25:58;;;;;;;11.98;7.47;;;;;;;18.14;100.00;98165.38;5023669;28;20037;-65
2021/09/15 03:28:24;;;;;;;11.73;7.47;;;;;;;18.11;99.71;98162.91;5023553;28;20092;-65
2021/09/15 03:30:49;;;;;;;13.50;7.82;;;;;;;18.07;100.00;98169.34;5023596;28;20045;-65
2021/09/15 03:33:15;;;;;;;14.70;7.53;;;;;;;18.08;100.00;98166.59;5023619;28;20033;-65
2021/09/15 03:35:40;;;;;;;15.70;7.30;;;;;;;18.07;100.00;98169.34;5023568;28;20029;-65
2021/09/15 03:38:05;;;;;;;10.80;7.43;;;;;;;18.04;100.00;98169.53;5023524;28;20208;-65
2021/09/15 03:40:31;;;;;;;19.42;7.47;;;;;;;18.06;100.00;98162.28;5023850;28;20032;-65
2021/09/15 03:42:56;;;;;;;12.13;7.80;;;;;;;18.04;100.00;98158.88;5023471;28;20104;-65
2021/09/15 03:45:22;;;;;;;11.73;7.10;;;;;;;18.05;100.00;98157.91;5023494;28;20066;-65
2021/09/15 03:47:47;;;;;;;14.15;7.88;;;;;;;18.05;100.00;98156.13;5023373;28;20036;-65
2021/09/15 03:50:13;;;;;;;14.48;7.35;;;;;;;18.07;100.00;98156.03;5023507;28;20085;-65
2021/09/15 03:52:38;;;;;;;12.18;7.72;;;;;;;18.09;100.00;98156.78;5023398;28;20124;-65
2021/09/15 03:55:04;;;;;;;16.05;7.85;;;;;;;18.04;100.00;98150.88;5023279;28;20028;-65
2021/09/15 03:57:29;;;;;;;15.18;8.30;;;;;;;18.03;100.00;98147.34;5023410;28;20021;-65
2021/09/15 03:59:55;;;;;;;13.48;8.30;;;;;;;18.07;100.00;98158.69;5023425;28;20021;-65
2021/09/15 04:02:20;;;;;;;16.20;8.60;;;;;;;18.02;100.00;98153.63;5006335;28;20325;-65
2021/09/15 04:04:46;;;;;;;13.18;8.07;;;;;;;18.00;100.00;98158.16;5023464;28;20092;-65
2021/09/15 04:07:11;;;;;;;14.80;8.27;;;;;;;17.97;100.00;98152.19;4967215;28;1134220;-66
2021/09/15 04:09:37;;;;;;;15.90;8.05;;;;;;;17.94;100.00;98155.00;5024505;28;20279;-66
2021/09/15 04:12:03;;;;;;;13.55;8.85;;;;;;;17.86;100.00;98154.56;5024382;28;20032;-66
2021/09/15 04:14:28;;;;;;;14.23;8.65;;;;;;;17.90;100.00;98145.44;5024313;28;20249;-66
2021/09/15 04:16:53;;;;;;;16.70;8.50;;;;;;;17.90;100.00;98150.78;5024246;28;20030;-66
2021/09/15 04:19:19;;;;;;;11.77;7.72;;;;;;;17.94;100.00;98149.69;5024253;28;20089;-66
2021/09/15 04:21:45;;;;;;;12.48;8.25;;;;;;;17.94;100.00;98163.00;5024179;28;20081;-66
2021/09/15 04:32:04;;;;;;;11.65;8.07;;;;;;;17.82;100.00;98185.84;5024226;28;20041;-66
2021/09/15 04:34:29;;;;;;;12.63;8.18;;;;;;;17.83;100.00;98189.34;5024124;28;20018;-65
2021/09/15 04:36:54;;;;;;;13.20;8.48;;;;;;;17.86;100.00;98191.84;5023845;28;20049;-65
2021/09/15 04:39:20;;;;;;;20.90;9.70;;;;;;;17.79;100.00;98190.47;5005747;28;20040;-65
2021/09/15 04:41:45;;;;;;;15.48;8.30;;;;;;;17.81;100.00;98192.09;5024353;28;20037;-65
2021/09/15 04:44:11;;;;;;;18.02;8.90;;;;;;;17.83;100.00;98192.00;5026844;28;20097;-65
2021/09/15 04:46:36;;;;;;;15.13;7.63;;;;;;;17.87;100.00;98182.94;5027113;28;20321;-65
2021/09/15 04:49:01;;;;;;;16.77;8.25;;;;;;;17.79;100.00;98185.16;5026466;28;20030;-65
2021/09/15 04:51:27;;;;;;;19.13;8.98;;;;;;;17.81;100.00;98177.94;5027443;28;20025;-65
2021/09/15 04:53:52;;;;;;;16.52;9.07;;;;;;;17.83;100.00;98184.03;5027216;28;20213;-65
2021/09/15 04:56:18;;;;;;;21.15;9.60;;;;;;;17.79;100.00;98179.81;5009846;28;20059;-65
2021/09/15 04:58:43;;;;;;;14.57;8.48;;;;;;;17.76;100.00;98180.00;5027262;28;20018;-66
2021/09/15 05:01:08;;;;;;;12.02;8.95;;;;;;;17.73;100.00;98170.38;5027196;28;20045;-66
2021/09/15 05:03:34;;;;;;;18.05;8.93;;;;;;;17.73;100.00;98158.84;5027010;28;20026;-66
2021/09/15 05:05:59;;;;;;;12.77;8.55;;;;;;;17.71;100.00;98166.06;5027018;28;20025;-66
2021/09/15 05:08:25;;;;;;;14.07;9.02;;;;;;;17.72;100.00;98165.13;5027070;28;20037;-66
2021/09/15 05:10:50;;;;;;;13.75;8.32;;;;;;;17.69;100.00;98162.63;5027060;28;20332;-66
2021/09/15 05:13:16;;;;;;;11.80;8.75;;;;;;;17.66;100.00;98157.47;5026960;28;20018;-66
2021/09/15 05:15:41;;;;;;;17.00;8.32;;;;;;;17.66;100.00;98153.03;5027048;28;20018;-66
2021/09/15 05:18:07;;;;;;;13.88;8.90;;;;;;;17.67;100.00;98157.41;5027136;28;20045;-66
2021/09/15 05:20:32;;;;;;;12.60;8.40;;;;;;;17.64;100.00;98156.69;5026865;28;20022;-66
2021/09/15 05:22:58;;;;;;;13.82;8.93;;;;;;;17.59;100.00;98156.09;5026848;28;20093;-66
2021/09/15 05:25:25;;;;;;;22.45;9.45;;;;;;;17.58;100.00;98154.38;5026749;28;20022;-66
2021/09/15 05:27:51;;;;;;;12.13;8.55;;;;;;;17.55;100.00;98159.84;5026685;28;20338;-66
2021/09/15 05:30:17;;;;;;;13.43;9.00;;;;;;;17.54;100.00;98166.13;5026620;28;20240;-66
2021/09/15 05:32:42;;;;;;;14.27;9.35;;;;;;;17.55;100.00;98170.50;5026539;28;20029;-66
2021/09/15 05:35:10;;;;;;;22.00;10.30;;;;;;;17.58;100.00;98175.66;5009139;28;20033;-65
2021/09/15 05:37:35;;;;;;;11.45;8.48;;;;;;;17.59;100.00;98167.59;5026518;28;20018;-65
2021/09/15 05:40:01;;;;;;;15.52;9.68;;;;;;;17.60;100.00;98173.78;5008964;28;20029;-65
2021/09/15 05:42:27;;;;;;;15.70;8.88;;;;;;;17.65;100.00;98177.06;5026729;28;20018;-65
2021/09/15 05:44:53;;;;;;;14.40;9.32;;;;;;;17.67;100.00;98175.16;5026442;28;20084;-65
2021/09/15 05:47:18;;;;;;;13.75;9.25;;;;;;;17.70;100.00;98181.19;5026317;28;20018;-65
2021/09/15 05:49:44;;;;;;;14.48;8.95;;;;;;;17.71;100.00;98187.34;5026495;28;20046;-65
2021/09/15 05:52:09;;;;;;;12.85;8.43;;;;;;;17.73;100.00;98191.66;5008941;28;20026;-65
2021/09/15 05:54:35;;;;;;;14.70;9.43;;;;;;;17.74;100.00;98192.50;5025418;28;20026;-65
2021/09/15 05:57:00;;;;;;;17.58;8.45;;;;;;;17.90;100.00;98193.38;5026473;28;20014;-65
2021/09/15 05:59:26;;;;;;;12.38;8.98;;;;;;;17.93;100.00;98191.41;5026359;28;20018;-65
2021/09/15 06:01:51;;;;;;;18.42;8.15;;;;;;;17.98;100.00;98196.50;5026362;28;20337;-65
2021/09/15 06:04:16;;;;;;;13.18;7.13;;;;;;;18.15;100.00;98194.59;5026417;28;20059;-65
2021/09/15 06:06:42;;;;;;;13.50;7.22;;;;;;;18.25;100.00;98195.78;5026015;28;20061;-65
2021/09/15 06:09:07;;;;;;;14.80;6.28;;;;;;;18.36;100.00;98197.84;5026349;28;20060;-65
2021/09/15 06:11:33;;;;;;;11.05;5.85;;;;;;;18.43;100.00;98193.91;5026272;28;20022;-65
2021/09/15 06:13:58;;;;;;;13.20;5.35;;;;;;;18.54;100.00;98196.84;5026023;28;20025;-65
2021/09/15 06:16:24;;;;;;;10.38;5.15;;;;;;;18.51;100.00;98194.34;5026078;28;20253;-65
2021/09/15 06:18:49;;;;;;;13.52;5.82;;;;;;;18.55;100.00;98194.09;5025887;28;20064;-65
2021/09/15 06:21:16;;;;;;;12.77;5.70;;;;;;;18.61;100.00;98203.53;5025898;28;20088;-65
2021/09/15 06:23:42;;;;;;;10.85;5.30;;;;;;;18.58;100.00;98198.38;5026330;28;20021;-65
2021/09/15 06:26:07;;;;;;;10.15;5.18;;;;;;;18.59;100.00;98192.94;5026298;28;20097;-65
2021/09/15 06:28:32;;;;;;;9.20;5.68;;;;;;;18.56;100.00;98184.25;5025621;28;20321;-65
2021/09/15 06:31:00;;;;;;;11.00;5.25;;;;;;;18.56;100.00;98184.25;5025727;28;20045;-65
2021/09/15 06:33:25;;;;;;;10.15;4.90;;;;;;;18.58;100.00;98183.22;5025707;28;20021;-65
2021/09/15 06:35:52;;;;;;;7.55;4.78;;;;;;;18.59;100.00;98186.75;5025937;28;20049;-65
2021/09/15 06:38:17;;;;;;;17.35;4.35;;;;;;;18.62;100.00;98189.25;5008110;28;20018;-65
2021/09/15 06:40:43;;;;;;;11.00;5.00;;;;;;;18.65;100.00;98189.06;5025553;28;20080;-65
2021/09/15 06:43:08;;;;;;;7.72;5.25;;;;;;;18.64;100.00;98182.03;5025442;28;20380;-65
2021/09/15 06:45:34;;;;;;;9.57;4.93;;;;;;;18.69;100.00;98186.13;5025445;28;20120;-65
2021/09/15 06:47:59;;;;;;;11.60;4.80;;;;;;;18.74;100.00;98189.41;5025349;28;20061;-66
2021/09/15 06:50:25;;;;;;;13.68;5.05;;;;;;;18.78;100.00;98190.06;5025417;28;20030;-66
2021/09/15 06:52:50;;;;;;;12.45;5.20;;;;;;;18.80;100.00;98182.84;5025530;28;20088;-66
2021/09/15 06:55:16;;;;;;;10.73;4.80;;;;;;;18.82;100.00;98184.44;5025341;28;20028;-66
2021/09/15 06:57:41;;;;;;;8.25;4.50;;;;;;;18.82;100.00;98186.25;5025300;28;20080;-66
2021/09/15 07:00:08;;;;;;;10.07;4.80;;;;;;;18.85;100.00;98191.41;5025365;28;20251;-66
2021/09/15 07:02:34;;;;;;;19.50;4.88;;;;;;;18.88;100.00;98176.09;5025145;28;20057;-66
2021/09/15 07:04:59;;;;;;;8.10;4.70;;;;;;;18.93;100.00;98186.47;5024878;28;20032;-66
2021/09/15 07:07:25;;;;;;;8.85;4.55;;;;;;;18.96;100.00;98179.13;5024970;28;20041;-66
2021/09/15 07:09:51;;;;;;;7.70;4.65;;;;;;;19.00;100.00;98180.69;5024930;28;20021;-66
2021/09/15 07:12:16;;;;;;;11.07;5.00;;;;;;;19.06;100.00;98184.78;5024944;28;20026;-66
2021/09/15 07:14:42;;;;;;;9.45;4.72;;;;;;;19.10;100.00;98183.66;5024974;28;20030;-66
2021/09/15 07:17:08;;;;;;;7.38;4.55;;;;;;;19.14;100.00;98193.19;5024944;28;20018;-66
2021/09/15 07:19:33;;;;;;;7.93;4.45;;;;;;;19.08;100.00;98188.25;5024941;28;20025;-66
2021/09/15 07:21:58;;;;;;;9.82;5.18;;;;;;;19.14;100.00;98187.84;5024838;28;20025;-66
2021/09/15 07:24:25;;;;;;;9.50;5.20;;;;;;;19.18;100.00;98189.41;5024807;28;20049;-66
2021/09/15 07:26:51;;;;;;;11.43;5.25;;;;;;;19.22;100.00;98190.91;5024707;28;20093;-66
2021/09/15 07:29:16;;;;;;;9.88;5.28;;;;;;;19.23;100.00;98198.84;5024616;28;20113;-66
2021/09/15 07:31:42;;;;;;;10.50;5.13;;;;;;;19.26;100.00;98203.16;5024598;28;20045;-66
2021/09/15 07:34:08;;;;;;;7.88;4.80;;;;;;;19.37;100.00;98191.81;5024709;28;20030;-66
2021/09/15 07:36:34;;;;;;;12.40;4.95;;;;;;;19.37;100.00;98198.03;5024741;28;20071;-66
2021/09/15 07:39:00;;;;;;;9.55;5.07;;;;;;;19.38;100.00;98197.06;5024716;28;20021;-66
2021/09/15 07:41:26;;;;;;;9.27;5.63;;;;;;;19.39;100.00;98198.78;5024610;28;20044;-66
2021/09/15 07:43:52;;;;;;;8.70;4.78;;;;;;;19.40;100.00;98208.53;5024590;28;20030;-66
2021/09/15 07:46:21;;;;;;;10.07;5.65;;;;;;;19.39;100.00;98209.44;5024503;28;20026;-66
2021/09/15 07:48:51;;;;;;;8.60;5.15;;;;;;;19.43;100.00;98205.66;5024470;28;20049;-66
2021/09/15 07:51:16;;;;;;;13.15;5.35;;;;;;;19.43;100.00;98211.00;5024623;28;20288;-66
2021/09/15 07:53:42;;;;;;;9.50;5.25;;;;;;;19.45;100.00;98218.91;5024444;28;20026;-66
2021/09/15 07:56:08;;;;;;;7.68;5.50;;;;;;;19.45;100.00;98213.59;5024505;28;20040;-66
2021/09/15 07:58:33;;;;;;;11.85;5.40;;;;;;;19.52;100.00;98214.91;5024299;28;20018;-66
2021/09/15 08:00:59;;;;;;;9.68;5.45;;;;;;;19.56;100.00;98213.75;5024324;28;20030;-66
2021/09/15 08:03:24;;;;;;;12.35;5.63;;;;;;;19.62;100.00;98222.28;5024278;28;20332;-66
2021/09/15 08:05:50;;;;;;;10.93;5.40;;;;;;;19.67;100.00;98225.50;5024301;28;20115;-66
2021/09/15 08:08:15;;;;;;;10.52;5.38;;;;;;;19.72;100.00;98222.53;5024071;28;20049;-66
2021/09/15 08:10:41;;;;;;;10.13;5.57;;;;;;;19.79;100.00;98221.19;5024205;28;20021;-66
2021/09/15 08:13:08;;;;;;;13.20;5.97;;;;;;;19.77;100.00;98229.31;5024662;28;20033;-66
2021/09/15 08:15:33;;;;;;;8.93;5.05;;;;;;;19.80;100.00;98230.94;5024324;28;20033;-66
2021/09/15 08:17:58;;;;;;;11.10;5.97;;;;;;;19.89;100.00;98231.22;5027063;28;20085;-66
2021/09/15 08:20:24;;;;;;;10.23;5.82;;;;;;;19.94;100.00;98234.47;5028253;28;20109;-66
2021/09/15 08:22:50;;;;;;;10.85;5.72;;;;;;;19.94;100.00;98228.25;5028069;28;20029;-66
2021/09/15 08:25:15;;;;;;;12.20;5.55;;;;;;;20.02;100.00;98237.50;5010551;28;20035;-66
2021/09/15 08:27:41;;;;;;;9.35;5.47;;;;;;;20.06;100.00;98233.66;5027956;28;20045;-66
2021/09/15 08:30:08;;;;;;;8.55;5.30;;;;;;;19.98;99.36;98232.44;5028004;28;20274;-66
2021/09/15 08:32:33;;;;;;;8.93;4.85;;;;;;;20.05;100.00;98237.31;5027815;28;20077;-66
2021/09/15 08:34:58;;;;;;;9.13;5.28;;;;;;;20.01;98.08;98229.56;5027793;28;20025;-66
2021/09/15 08:37:24;;;;;;;8.27;5.35;;;;;;;20.10;99.33;98235.22;5027784;28;20018;-66
2021/09/15 08:39:49;;;;;;;14.30;5.15;;;;;;;20.16;99.49;98232.19;5027907;28;20037;-66
2021/09/15 08:42:15;;;;;;;12.18;4.90;;;;;;;20.17;99.53;98231.22;5027636;28;20253;-66
2021/09/15 08:44:41;;;;;;;9.75;4.70;;;;;;;20.26;98.73;98230.63;5027683;28;20252;-66
2021/09/15 08:47:07;;;;;;;10.07;4.93;;;;;;;20.35;98.95;98235.34;5027513;28;20089;-66
2021/09/15 08:49:34;;;;;;;7.65;4.22;;;;;;;20.26;97.21;98246.66;5027658;28;20036;-66
2021/09/15 08:51:59;;;;;;;10.13;4.45;;;;;;;20.32;97.95;98240.06;5027827;28;20333;-65
2021/09/15 08:54:25;;;;;;;4.88;3.53;;;;;;;20.30;98.31;98247.31;5027494;28;20033;-65
2021/09/15 08:56:51;;;;;;;8.10;4.22;;;;;;;20.29;97.28;98241.13;5009934;28;20029;-65
2021/09/15 08:59:17;;;;;;;8.18;4.72;;;;;;;20.30;97.14;98245.50;5027378;28;20034;-65
2021/09/15 09:01:45;;;;;;;7.25;3.80;;;;;;;20.29;97.63;98246.47;5027504;28;20036;-65
2021/09/15 09:04:16;;;;;;;7.25;3.55;;;;;;;20.31;97.73;98249.88;5027222;28;20026;-65
2021/09/15 09:06:46;;;;;;;7.78;4.20;;;;;;;20.33;98.06;98252.47;5027124;28;20045;-65
2021/09/15 09:09:12;;;;;;;8.93;3.75;;;;;;;20.36;97.80;98246.91;5027559;28;20256;-65
2021/09/15 09:11:37;;;;;;;6.22;3.50;;;;;;;20.42;96.73;98258.09;5027110;28;20017;-65
2021/09/15 09:14:08;;;;;;;6.15;3.33;;;;;;;20.54;96.12;98257.25;5027122;28;20018;-65
2021/09/15 09:16:43;;;;;;;6.38;3.80;;;;;;;20.54;96.88;98262.63;5027106;28;20057;-65
2021/09/15 09:19:12;;;;;;;5.40;3.15;;;;;;;20.59;96.72;98259.63;5027037;28;20045;-65
2021/09/15 09:21:39;;;;;;;7.30;3.45;;;;;;;20.62;96.22;98254.09;5027047;28;20025;-65
2021/09/15 09:24:07;;;;;;;9.30;3.53;;;;;;;20.61;95.26;98263.97;5026952;28;20021;-65
2021/09/15 09:26:48;;;;;;;7.63;3.17;;;;;;;20.60;95.92;98261.38;5026969;28;20360;-65
2021/09/15 09:29:15;;;;;;;5.50;2.88;;;;;;;20.61;96.21;98255.94;5026730;28;20037;-65
2021/09/15 09:31:52;;;;;;;6.07;3.20;;;;;;;20.59;96.36;98248.94;5027046;28;20045;-65
2021/09/15 09:34:19;;;;;;;6.60;3.00;;;;;;;20.53;96.19;98254.72;5026802;28;20026;-65
2021/09/15 09:37:04;;;;;;;7.13;3.28;;;;;;;20.48;95.59;98263.03;5026684;28;20030;-65
2021/09/15 09:39:43;;;;;;;8.55;3.30;;;;;;;20.50;96.82;98261.09;5026787;28;20041;-65
2021/09/15 09:42:38;;;;;;;6.45;3.17;;;;;;;20.54;97.82;98251.91;5026902;28;20071;-65
2021/09/15 09:45:06;;;;;;;10.57;3.90;;;;;;;20.44;96.79;98256.16;5024576;28;20038;-65
2021/09/15 09:47:33;;;;;;;7.30;2.97;;;;;;;20.33;97.18;98258.69;5008900;28;20233;-65
2021/09/15 09:50:04;;;;;;;6.18;3.03;;;;;;;20.41;97.16;98253.69;5026671;28;20026;-67
2021/09/15 09:52:31;;;;;;;5.63;3.08;;;;;;;20.31;96.87;98255.22;5026473;28;20022;-67
2021/09/15 09:55:04;;;;;;;4.70;2.78;;;;;;;20.34;96.85;98260.38;5026463;28;20038;-67
2021/09/15 09:57:30;;;;;;;4.50;2.53;;;;;;;20.33;97.40;98253.31;5026281;28;20213;-67
2021/09/15 09:59:57;;;;;;;5.93;2.80;;;;;;;20.35;97.05;98246.03;5026454;28;20053;-67
2021/09/15 10:02:23;;;;;;;7.05;2.92;;;;;;;20.39;96.28;98247.59;5026187;28;20262;-67
2021/09/15 10:04:48;;;;;;;5.38;3.03;;;;;;;20.38;96.92;98255.72;5026252;28;20080;-67
2021/09/15 10:07:14;;;;;;;8.23;2.70;;;;;;;20.50;96.54;98245.06;5025949;28;20282;-68
2021/09/15 10:09:42;;;;;;;12.02;3.17;;;;;;;20.32;96.53;98251.63;5026193;28;20071;-68
2021/09/15 10:12:08;;;;;;;9.05;2.75;;;;;;;20.28;96.22;98252.75;5026156;28;20028;-68
2021/09/15 10:14:34;;;;;;;8.38;3.08;;;;;;;20.36;97.79;98246.91;5026096;28;20225;-68
2021/09/15 10:17:15;;;;;;;5.32;2.60;;;;;;;20.40;96.41;98251.97;5025950;28;20029;-68
2021/09/15 10:19:44;;;;;;;6.90;3.08;;;;;;;20.47;96.13;98245.25;5025979;28;20022;-68
2021/09/15 10:22:10;;;;;;;6.88;2.90;;;;;;;20.63;96.29;98235.28;5026040;28;20089;-68
2021/09/15 10:24:47;;;;;;;5.47;2.90;;;;;;;20.76;95.65;98236.19;5025978;28;20068;-68
2021/09/15 10:27:17;;;;;;;5.97;2.55;;;;;;;20.81;95.47;98239.41;5025678;28;20340;-68
2021/09/15 10:29:51;;;;;;;6.07;2.55;;;;;;;20.88;94.73;98235.38;5025806;28;20085;-68
2021/09/15 10:32:31;;;;;;;4.70;2.65;;;;;;;20.96;94.00;98237.56;5025832;28;20221;-67
2021/09/15 10:34:56;;;;;;;3.63;2.50;;;;;;;21.02;94.72;98232.69;5025981;28;20017;-67
2021/09/15 10:37:42;;;;;;;3.85;2.70;;;;;;;21.01;93.88;98235.47;5025816;28;20046;-67
2021/09/15 10:40:11;;;;;;;7.45;2.85;;;;;;;20.97;93.66;98229.44;5011594;28;20037;-67
2021/09/15 10:45:29;;;;;;;5.55;2.70;;;;;;;20.95;94.71;98226.00;5025787;28;20045;-67
2021/09/15 10:47:58;;;;;;;5.93;3.22;;;;;;;20.87;94.48;98228.31;5025524;28;20026;-67
2021/09/15 10:50:30;;;;;;;4.97;2.90;;;;;;;20.82;94.84;98225.06;5025613;28;20037;-67
2021/09/15 10:53:01;;;;;;;6.78;3.35;;;;;;;20.76;95.17;98230.81;5025552;28;20024;-67
2021/09/15 10:55:36;;;;;;;7.68;3.30;;;;;;;20.79;95.45;98225.28;5025615;28;20018;-67
2021/09/15 10:58:13;;;;;;;5.40;2.97;;;;;;;20.86;95.25;98223.94;5025404;28;20321;-67
2021/09/15 11:00:53;;;;;;;6.80;3.10;;;;;;;20.90;94.14;98217.41;5025447;28;20060;-67
2021/09/15 11:03:22;;;;;;;4.75;3.03;;;;;;;20.87;94.55;98228.31;5025592;28;20030;-67
2021/09/15 11:05:47;;;;;;;5.80;3.35;;;;;;;20.92;94.43;98226.16;5025250;28;20022;-67
2021/09/15 11:08:46;;;;;;;6.28;3.00;;;;;;;20.85;93.26;98222.19;5025083;28;20065;-67
2021/09/15 11:11:21;;;;;;;6.20;3.53;;;;;;;20.81;92.45;98218.03;5025360;28;20028;-67
2021/09/15 11:13:49;;;;;;;6.93;3.28;;;;;;;20.81;93.05;98218.03;5025171;28;20022;-67
2021/09/15 11:16:24;;;;;;;7.18;3.95;;;;;;;20.82;93.33;98211.69;5025213;28;20116;-67
2021/09/15 11:18:57;;;;;;;5.97;3.60;;;;;;;20.81;94.50;98218.03;5025061;28;20017;-67
2021/09/15 11:21:24;;;;;;;7.05;3.50;;;;;;;20.98;93.87;98215.09;5025109;28;20084;-67
2021/09/15 11:23:54;;;;;;;12.35;3.88;;;;;;;21.01;93.21;98211.38;5025015;28;20137;-67
2021/09/15 11:26:39;;;;;;;5.95;3.85;;;;;;;21.10;93.59;98216.06;5024862;28;20049;-67
2021/09/15 11:29:05;;;;;;;6.63;3.28;;;;;;;21.29;93.38;98214.72;5025105;28;20021;-67
2021/09/15 11:31:32;;;;;;;16.10;3.92;;;;;;;21.31;91.79;98211.94;5024807;28;20048;-67